sensor_id;sensor_type;location;lat;lon;timestamp;P1;durP1;ratioP1;P2;durP2;ratioP2
21733;SDS011;11029;47.820;10.534;2023-09-08T00:02:25;7.00;;;6.30;;
21733;SDS011;11029;47.820;10.534;2023-09-08T00:04:53;6.30;;;5.70;;
21733;SDS011;11029;47.820;10.534;2023-09-08T00:07:20;6.43;;;5.80;;
21733;SDS011;11029;47.820;10.534;2023-09-08T00:09:47;5.82;;;5.30;;
21733;SDS011;11029;47.820;10.534;2023-09-08T00:12:14;6.75;;;5.63;;
21733;SDS011;11029;47.820;10.534;2023-09-08T00:14:41;7.85;;;5.70;;
21733;SDS011;11029;47.820;10.534;2023-09-08T00:17:07;6.47;;;5.85;;
21733;SDS011;11029;47.820;10.534;2023-09-08T00:19:34;6.50;;;5.90;;
21733;SDS011;11029;47.820;10.534;2023-09-08T00:22:02;6.88;;;5.60;;
21733;SDS011;11029;47.820;10.534;2023-09-08T00:24:32;6.30;;;5.70;;
21733;SDS011;11029;47.820;10.534;2023-09-08T00:26:59;6.00;;;5.40;;
21733;SDS011;11029;47.820;10.534;2023-09-08T00:29:26;6.88;;;5.75;;
21733;SDS011;11029;47.820;10.534;2023-09-08T00:31:53;6.72;;;5.93;;
21733;SDS011;11029;47.820;10.534;2023-09-08T00:34:20;6.20;;;5.60;;
21733;SDS011;11029;47.820;10.534;2023-09-08T00:36:47;6.32;;;5.72;;
21733;SDS011;11029;47.820;10.534;2023-09-08T00:39:13;5.85;;;5.45;;
21733;SDS011;11029;47.820;10.534;2023-09-08T00:41:40;6.63;;;6.03;;
21733;SDS011;11029;47.820;10.534;2023-09-08T00:44:07;5.95;;;5.32;;
21733;SDS011;11029;47.820;10.534;2023-09-08T00:46:35;6.30;;;5.70;;
21733;SDS011;11029;47.820;10.534;2023-09-08T00:49:02;5.82;;;5.32;;
21733;SDS011;11029;47.820;10.534;2023-09-08T00:51:29;5.78;;;5.28;;
21733;SDS011;11029;47.820;10.534;2023-09-08T00:53:56;6.45;;;5.78;;
21733;SDS011;11029;47.820;10.534;2023-09-08T00:56:23;7.82;;;6.03;;
21733;SDS011;11029;47.820;10.534;2023-09-08T00:58:50;6.22;;;5.50;;
21733;SDS011;11029;47.820;10.534;2023-09-08T01:01:17;6.30;;;5.80;;
21733;SDS011;11029;47.820;10.534;2023-09-08T01:03:44;5.97;;;5.38;;
21733;SDS011;11029;47.820;10.534;2023-09-08T01:06:11;5.90;;;5.40;;
21733;SDS011;11029;47.820;10.534;2023-09-08T01:08:38;7.70;;;5.82;;
21733;SDS011;11029;47.820;10.534;2023-09-08T01:11:06;6.20;;;5.57;;
21733;SDS011;11029;47.820;10.534;2023-09-08T01:13:33;5.68;;;5.18;;
21733;SDS011;11029;47.820;10.534;2023-09-08T01:16:01;6.18;;;5.60;;
21733;SDS011;11029;47.820;10.534;2023-09-08T01:18:28;6.25;;;5.68;;
21733;SDS011;11029;47.820;10.534;2023-09-08T01:21:18;7.55;;;6.10;;
21733;SDS011;11029;47.820;10.534;2023-09-08T01:26:49;6.72;;;5.57;;
21733;SDS011;11029;47.820;10.534;2023-09-08T01:29:16;6.55;;;5.97;;
21733;SDS011;11029;47.820;10.534;2023-09-08T01:31:45;6.65;;;6.10;;
21733;SDS011;11029;47.820;10.534;2023-09-08T01:34:12;6.53;;;5.90;;
21733;SDS011;11029;47.820;10.534;2023-09-08T01:36:39;6.78;;;5.97;;
21733;SDS011;11029;47.820;10.534;2023-09-08T01:39:06;5.95;;;5.45;;
21733;SDS011;11029;47.820;10.534;2023-09-08T01:41:33;5.88;;;5.30;;
21733;SDS011;11029;47.820;10.534;2023-09-08T01:44:00;6.05;;;5.55;;
21733;SDS011;11029;47.820;10.534;2023-09-08T01:46:32;6.03;;;5.53;;
21733;SDS011;11029;47.820;10.534;2023-09-08T01:49:00;7.85;;;5.88;;
21733;SDS011;11029;47.820;10.534;2023-09-08T01:51:27;6.13;;;5.53;;
21733;SDS011;11029;47.820;10.534;2023-09-08T01:53:54;5.97;;;5.38;;
21733;SDS011;11029;47.820;10.534;2023-09-08T01:56:20;6.18;;;5.45;;
21733;SDS011;11029;47.820;10.534;2023-09-08T01:58:49;5.60;;;5.10;;
21733;SDS011;11029;47.820;10.534;2023-09-08T02:01:16;6.85;;;5.30;;
21733;SDS011;11029;47.820;10.534;2023-09-08T02:03:42;5.78;;;5.28;;
21733;SDS011;11029;47.820;10.534;2023-09-08T02:06:09;5.60;;;5.10;;
21733;SDS011;11029;47.820;10.534;2023-09-08T02:08:36;5.75;;;5.25;;
21733;SDS011;11029;47.820;10.534;2023-09-08T02:11:05;6.00;;;5.40;;
21733;SDS011;11029;47.820;10.534;2023-09-08T02:13:32;5.57;;;5.07;;
21733;SDS011;11029;47.820;10.534;2023-09-08T02:15:59;6.07;;;5.50;;
21733;SDS011;11029;47.820;10.534;2023-09-08T02:18:26;5.53;;;4.90;;
21733;SDS011;11029;47.820;10.534;2023-09-08T02:20:52;5.53;;;4.77;;
21733;SDS011;11029;47.820;10.534;2023-09-08T02:23:19;6.97;;;5.87;;
21733;SDS011;11029;47.820;10.534;2023-09-08T02:25:46;6.53;;;5.88;;
21733;SDS011;11029;47.820;10.534;2023-09-08T02:28:13;6.43;;;5.83;;
21733;SDS011;11029;47.820;10.534;2023-09-08T02:30:40;6.13;;;5.53;;
21733;SDS011;11029;47.820;10.534;2023-09-08T02:33:07;5.72;;;5.22;;
21733;SDS011;11029;47.820;10.534;2023-09-08T02:35:36;6.05;;;5.45;;
21733;SDS011;11029;47.820;10.534;2023-09-08T02:38:05;7.60;;;5.90;;
21733;SDS011;11029;47.820;10.534;2023-09-08T02:40:32;5.97;;;5.43;;
21733;SDS011;11029;47.820;10.534;2023-09-08T02:43:01;6.47;;;5.88;;
21733;SDS011;11029;47.820;10.534;2023-09-08T02:45:29;8.10;;;5.78;;
21733;SDS011;11029;47.820;10.534;2023-09-08T02:47:59;6.18;;;5.53;;
21733;SDS011;11029;47.820;10.534;2023-09-08T02:50:26;6.68;;;5.30;;
21733;SDS011;11029;47.820;10.534;2023-09-08T02:52:53;6.05;;;5.45;;
21733;SDS011;11029;47.820;10.534;2023-09-08T02:55:19;7.00;;;6.32;;
21733;SDS011;11029;47.820;10.534;2023-09-08T02:57:46;6.70;;;6.00;;
21733;SDS011;11029;47.820;10.534;2023-09-08T03:00:13;6.72;;;6.13;;
21733;SDS011;11029;47.820;10.534;2023-09-08T03:02:40;6.20;;;5.60;;
21733;SDS011;11029;47.820;10.534;2023-09-08T03:05:07;6.53;;;5.68;;
21733;SDS011;11029;47.820;10.534;2023-09-08T03:07:35;6.22;;;5.63;;
21733;SDS011;11029;47.820;10.534;2023-09-08T03:10:03;5.75;;;5.25;;
21733;SDS011;11029;47.820;10.534;2023-09-08T03:12:31;5.73;;;5.23;;
21733;SDS011;11029;47.820;10.534;2023-09-08T03:15:00;5.88;;;5.28;;
21733;SDS011;11029;47.820;10.534;2023-09-08T03:17:28;6.03;;;5.40;;
21733;SDS011;11029;47.820;10.534;2023-09-08T03:19:54;6.10;;;5.50;;
21733;SDS011;11029;47.820;10.534;2023-09-08T03:22:21;6.50;;;5.30;;
21733;SDS011;11029;47.820;10.534;2023-09-08T03:24:49;6.05;;;5.40;;
21733;SDS011;11029;47.820;10.534;2023-09-08T03:27:16;5.90;;;5.25;;
21733;SDS011;11029;47.820;10.534;2023-09-08T03:29:43;6.05;;;5.28;;
21733;SDS011;11029;47.820;10.534;2023-09-08T03:32:09;5.97;;;5.40;;
21733;SDS011;11029;47.820;10.534;2023-09-08T03:34:37;6.03;;;5.43;;
21733;SDS011;11029;47.820;10.534;2023-09-08T03:37:06;5.85;;;5.28;;
21733;SDS011;11029;47.820;10.534;2023-09-08T03:39:33;7.10;;;5.88;;
21733;SDS011;11029;47.820;10.534;2023-09-08T03:42:01;7.60;;;5.87;;
21733;SDS011;11029;47.820;10.534;2023-09-08T03:44:28;8.57;;;6.50;;
21733;SDS011;11029;47.820;10.534;2023-09-08T03:46:55;6.97;;;6.28;;
21733;SDS011;11029;47.820;10.534;2023-09-08T03:49:22;6.68;;;5.70;;
21733;SDS011;11029;47.820;10.534;2023-09-08T03:51:49;6.75;;;6.05;;
21733;SDS011;11029;47.820;10.534;2023-09-08T03:54:16;6.20;;;5.70;;
21733;SDS011;11029;47.820;10.534;2023-09-08T03:56:43;6.68;;;5.97;;
21733;SDS011;11029;47.820;10.534;2023-09-08T03:59:10;6.93;;;5.43;;
21733;SDS011;11029;47.820;10.534;2023-09-08T04:01:37;6.72;;;6.13;;
21733;SDS011;11029;47.820;10.534;2023-09-08T04:04:05;6.30;;;5.70;;
21733;SDS011;11029;47.820;10.534;2023-09-08T04:06:32;6.72;;;6.13;;
21733;SDS011;11029;47.820;10.534;2023-09-08T04:08:59;6.88;;;5.70;;
21733;SDS011;11029;47.820;10.534;2023-09-08T04:11:26;8.00;;;6.22;;
21733;SDS011;11029;47.820;10.534;2023-09-08T04:13:53;6.43;;;5.85;;
21733;SDS011;11029;47.820;10.534;2023-09-08T04:16:20;6.35;;;5.75;;
21733;SDS011;11029;47.820;10.534;2023-09-08T04:18:46;6.95;;;5.57;;
21733;SDS011;11029;47.820;10.534;2023-09-08T04:21:13;6.30;;;5.70;;
21733;SDS011;11029;47.820;10.534;2023-09-08T04:23:40;9.55;;;5.63;;
21733;SDS011;11029;47.820;10.534;2023-09-08T04:26:07;8.50;;;6.07;;
21733;SDS011;11029;47.820;10.534;2023-09-08T04:28:34;8.80;;;5.88;;
21733;SDS011;11029;47.820;10.534;2023-09-08T04:31:01;6.50;;;5.90;;
21733;SDS011;11029;47.820;10.534;2023-09-08T04:33:29;6.80;;;5.80;;
21733;SDS011;11029;47.820;10.534;2023-09-08T04:35:56;6.53;;;5.93;;
21733;SDS011;11029;47.820;10.534;2023-09-08T04:38:23;6.67;;;6.03;;
21733;SDS011;11029;47.820;10.534;2023-09-08T04:40:49;7.60;;;6.82;;
21733;SDS011;11029;47.820;10.534;2023-09-08T04:43:17;6.70;;;6.10;;
21733;SDS011;11029;47.820;10.534;2023-09-08T04:45:43;7.50;;;5.73;;
21733;SDS011;11029;47.820;10.534;2023-09-08T04:48:11;6.32;;;5.60;;
21733;SDS011;11029;47.820;10.534;2023-09-08T04:50:39;6.15;;;5.45;;
21733;SDS011;11029;47.820;10.534;2023-09-08T04:53:07;6.53;;;5.88;;
21733;SDS011;11029;47.820;10.534;2023-09-08T04:55:34;6.35;;;5.75;;
21733;SDS011;11029;47.820;10.534;2023-09-08T04:58:03;7.25;;;6.00;;
21733;SDS011;11029;47.820;10.534;2023-09-08T05:00:30;7.70;;;6.10;;
21733;SDS011;11029;47.820;10.534;2023-09-08T05:02:57;6.73;;;6.13;;
21733;SDS011;11029;47.820;10.534;2023-09-08T05:05:24;7.13;;;6.15;;
21733;SDS011;11029;47.820;10.534;2023-09-08T05:07:51;7.63;;;6.05;;
21733;SDS011;11029;47.820;10.534;2023-09-08T05:10:22;6.72;;;5.93;;
21733;SDS011;11029;47.820;10.534;2023-09-08T05:12:50;6.07;;;5.40;;
21733;SDS011;11029;47.820;10.534;2023-09-08T05:15:18;6.35;;;5.70;;
21733;SDS011;11029;47.820;10.534;2023-09-08T05:17:51;6.68;;;5.53;;
21733;SDS011;11029;47.820;10.534;2023-09-08T05:20:19;5.35;;;4.90;;
21733;SDS011;11029;47.820;10.534;2023-09-08T05:22:46;5.95;;;5.25;;
21733;SDS011;11029;47.820;10.534;2023-09-08T05:25:13;6.45;;;5.85;;
21733;SDS011;11029;47.820;10.534;2023-09-08T05:27:40;6.30;;;5.20;;
21733;SDS011;11029;47.820;10.534;2023-09-08T05:30:08;6.70;;;6.00;;
21733;SDS011;11029;47.820;10.534;2023-09-08T05:32:36;7.22;;;6.10;;
21733;SDS011;11029;47.820;10.534;2023-09-08T05:35:03;7.10;;;6.40;;
21733;SDS011;11029;47.820;10.534;2023-09-08T05:37:30;7.50;;;6.17;;
21733;SDS011;11029;47.820;10.534;2023-09-08T05:39:57;9.77;;;6.47;;
21733;SDS011;11029;47.820;10.534;2023-09-08T05:42:24;19.65;;;8.65;;
21733;SDS011;11029;47.820;10.534;2023-09-08T05:44:51;18.88;;;9.32;;
21733;SDS011;11029;47.820;10.534;2023-09-08T05:47:18;19.58;;;9.80;;
21733;SDS011;11029;47.820;10.534;2023-09-08T05:49:45;15.90;;;8.93;;
21733;SDS011;11029;47.820;10.534;2023-09-08T05:52:12;13.15;;;8.05;;
21733;SDS011;11029;47.820;10.534;2023-09-08T05:54:40;13.57;;;8.10;;
21733;SDS011;11029;47.820;10.534;2023-09-08T05:57:08;14.05;;;8.68;;
21733;SDS011;11029;47.820;10.534;2023-09-08T05:59:34;13.77;;;8.95;;
21733;SDS011;11029;47.820;10.534;2023-09-08T06:02:02;14.98;;;9.15;;
21733;SDS011;11029;47.820;10.534;2023-09-08T06:04:29;13.07;;;9.00;;
21733;SDS011;11029;47.820;10.534;2023-09-08T06:06:59;10.53;;;8.33;;
21733;SDS011;11029;47.820;10.534;2023-09-08T06:09:26;10.50;;;8.97;;
21733;SDS011;11029;47.820;10.534;2023-09-08T06:11:53;8.93;;;7.37;;
21733;SDS011;11029;47.820;10.534;2023-09-08T06:14:20;8.60;;;7.70;;
21733;SDS011;11029;47.820;10.534;2023-09-08T06:16:48;9.88;;;7.97;;
21733;SDS011;11029;47.820;10.534;2023-09-08T06:19:16;10.52;;;8.30;;
21733;SDS011;11029;47.820;10.534;2023-09-08T06:21:44;8.80;;;7.70;;
21733;SDS011;11029;47.820;10.534;2023-09-08T06:24:11;8.70;;;7.80;;
21733;SDS011;11029;47.820;10.534;2023-09-08T06:26:38;8.67;;;7.77;;
21733;SDS011;11029;47.820;10.534;2023-09-08T06:29:06;9.85;;;8.60;;
21733;SDS011;11029;47.820;10.534;2023-09-08T06:31:34;9.15;;;7.90;;
21733;SDS011;11029;47.820;10.534;2023-09-08T06:34:01;10.57;;;8.65;;
21733;SDS011;11029;47.820;10.534;2023-09-08T06:36:28;10.35;;;9.25;;
21733;SDS011;11029;47.820;10.534;2023-09-08T06:38:55;8.95;;;8.05;;
21733;SDS011;11029;47.820;10.534;2023-09-08T06:41:22;11.77;;;9.27;;
21733;SDS011;11029;47.820;10.534;2023-09-08T06:43:51;9.13;;;8.20;;
21733;SDS011;11029;47.820;10.534;2023-09-08T06:46:21;9.68;;;8.68;;
21733;SDS011;11029;47.820;10.534;2023-09-08T06:48:48;9.75;;;8.80;;
21733;SDS011;11029;47.820;10.534;2023-09-08T06:51:15;9.23;;;8.23;;
21733;SDS011;11029;47.820;10.534;2023-09-08T06:53:43;9.32;;;8.13;;
21733;SDS011;11029;47.820;10.534;2023-09-08T06:56:10;8.65;;;7.85;;
21733;SDS011;11029;47.820;10.534;2023-09-08T06:58:37;8.65;;;7.75;;
21733;SDS011;11029;47.820;10.534;2023-09-08T07:01:04;8.80;;;7.90;;
21733;SDS011;11029;47.820;10.534;2023-09-08T07:03:31;8.32;;;7.53;;
21733;SDS011;11029;47.820;10.534;2023-09-08T07:06:05;8.38;;;7.57;;
21733;SDS011;11029;47.820;10.534;2023-09-08T07:08:32;8.50;;;7.70;;
21733;SDS011;11029;47.820;10.534;2023-09-08T07:10:59;7.78;;;6.97;;
21733;SDS011;11029;47.820;10.534;2023-09-08T07:13:26;8.98;;;7.13;;
21733;SDS011;11029;47.820;10.534;2023-09-08T07:15:53;7.43;;;6.72;;
21733;SDS011;11029;47.820;10.534;2023-09-08T07:18:21;7.32;;;6.63;;
21733;SDS011;11029;47.820;10.534;2023-09-08T07:20:48;7.28;;;6.57;;
21733;SDS011;11029;47.820;10.534;2023-09-08T07:23:16;7.35;;;6.65;;
21733;SDS011;11029;47.820;10.534;2023-09-08T07:25:47;7.80;;;7.10;;
21733;SDS011;11029;47.820;10.534;2023-09-08T07:28:16;7.22;;;6.63;;
21733;SDS011;11029;47.820;10.534;2023-09-08T07:30:43;7.28;;;6.68;;
21733;SDS011;11029;47.820;10.534;2023-09-08T07:33:11;9.88;;;8.98;;
21733;SDS011;11029;47.820;10.534;2023-09-08T07:35:39;8.40;;;7.70;;
21733;SDS011;11029;47.820;10.534;2023-09-08T07:38:06;8.30;;;7.60;;
21733;SDS011;11029;47.820;10.534;2023-09-08T07:40:33;8.00;;;7.30;;
21733;SDS011;11029;47.820;10.534;2023-09-08T07:43:01;8.40;;;7.70;;
21733;SDS011;11029;47.820;10.534;2023-09-08T07:45:28;8.23;;;7.43;;
21733;SDS011;11029;47.820;10.534;2023-09-08T07:47:55;8.75;;;7.95;;
21733;SDS011;11029;47.820;10.534;2023-09-08T07:50:26;8.07;;;7.47;;
21733;SDS011;11029;47.820;10.534;2023-09-08T07:52:55;9.17;;;8.37;;
21733;SDS011;11029;47.820;10.534;2023-09-08T07:55:22;10.07;;;9.18;;
21733;SDS011;11029;47.820;10.534;2023-09-08T07:57:53;8.67;;;7.87;;
21733;SDS011;11029;47.820;10.534;2023-09-08T08:00:20;10.13;;;9.23;;
21733;SDS011;11029;47.820;10.534;2023-09-08T08:02:48;9.45;;;8.35;;
21733;SDS011;11029;47.820;10.534;2023-09-08T08:05:16;9.47;;;8.57;;
21733;SDS011;11029;47.820;10.534;2023-09-08T08:07:43;9.07;;;8.38;;
21733;SDS011;11029;47.820;10.534;2023-09-08T08:10:11;9.75;;;8.95;;
21733;SDS011;11029;47.820;10.534;2023-09-08T08:12:39;10.75;;;9.70;;
21733;SDS011;11029;47.820;10.534;2023-09-08T08:15:07;9.47;;;8.67;;
21733;SDS011;11029;47.820;10.534;2023-09-08T08:17:38;10.25;;;9.25;;
21733;SDS011;11029;47.820;10.534;2023-09-08T08:20:06;12.00;;;10.35;;
21733;SDS011;11029;47.820;10.534;2023-09-08T08:22:36;10.02;;;9.02;;
21733;SDS011;11029;47.820;10.534;2023-09-08T08:25:03;10.23;;;9.23;;
21733;SDS011;11029;47.820;10.534;2023-09-08T08:27:30;12.33;;;10.60;;
21733;SDS011;11029;47.820;10.534;2023-09-08T08:29:58;11.35;;;10.25;;
21733;SDS011;11029;47.820;10.534;2023-09-08T08:32:27;11.00;;;9.82;;
21733;SDS011;11029;47.820;10.534;2023-09-08T08:34:54;12.43;;;10.10;;
21733;SDS011;11029;47.820;10.534;2023-09-08T08:37:22;12.05;;;10.85;;
21733;SDS011;11029;47.820;10.534;2023-09-08T08:39:49;12.10;;;10.55;;
21733;SDS011;11029;47.820;10.534;2023-09-08T08:42:16;11.95;;;10.75;;
21733;SDS011;11029;47.820;10.534;2023-09-08T08:44:43;12.60;;;11.40;;
21733;SDS011;11029;47.820;10.534;2023-09-08T08:47:11;12.20;;;11.00;;
21733;SDS011;11029;47.820;10.534;2023-09-08T08:49:40;13.33;;;11.20;;
21733;SDS011;11029;47.820;10.534;2023-09-08T08:52:09;11.52;;;10.32;;
21733;SDS011;11029;47.820;10.534;2023-09-08T08:54:40;12.43;;;11.23;;
21733;SDS011;11029;47.820;10.534;2023-09-08T08:57:08;10.60;;;9.52;;
21733;SDS011;11029;47.820;10.534;2023-09-08T08:59:37;11.13;;;10.00;;
21733;SDS011;11029;47.820;10.534;2023-09-08T09:02:04;11.27;;;10.10;;
21733;SDS011;11029;47.820;10.534;2023-09-08T09:04:31;10.13;;;8.57;;
21733;SDS011;11029;47.820;10.534;2023-09-08T09:06:59;12.05;;;10.10;;
21733;SDS011;11029;47.820;10.534;2023-09-08T09:09:26;10.27;;;9.27;;
21733;SDS011;11029;47.820;10.534;2023-09-08T09:11:52;10.98;;;9.68;;
21733;SDS011;11029;47.820;10.534;2023-09-08T09:14:19;9.57;;;8.57;;
21733;SDS011;11029;47.820;10.534;2023-09-08T09:16:46;10.07;;;8.90;;
21733;SDS011;11029;47.820;10.534;2023-09-08T09:19:17;11.52;;;9.73;;
21733;SDS011;11029;47.820;10.534;2023-09-08T09:21:51;12.48;;;8.95;;
21733;SDS011;11029;47.820;10.534;2023-09-08T09:24:31;9.53;;;8.57;;
21733;SDS011;11029;47.820;10.534;2023-09-08T09:27:00;9.50;;;8.70;;
21733;SDS011;11029;47.820;10.534;2023-09-08T09:29:27;10.45;;;9.43;;
21733;SDS011;11029;47.820;10.534;2023-09-08T09:31:55;10.33;;;9.30;;
21733;SDS011;11029;47.820;10.534;2023-09-08T09:34:30;9.57;;;8.60;;
21733;SDS011;11029;47.820;10.534;2023-09-08T09:36:57;9.40;;;8.50;;
21733;SDS011;11029;47.820;10.534;2023-09-08T09:39:25;9.88;;;8.98;;
21733;SDS011;11029;47.820;10.534;2023-09-08T09:41:53;8.65;;;7.85;;
21733;SDS011;11029;47.820;10.534;2023-09-08T09:44:21;10.63;;;9.63;;
21733;SDS011;11029;47.820;10.534;2023-09-08T09:46:48;12.95;;;10.32;;
21733;SDS011;11029;47.820;10.534;2023-09-08T09:49:18;9.68;;;8.68;;
21733;SDS011;11029;47.820;10.534;2023-09-08T09:51:49;9.30;;;8.18;;
21733;SDS011;11029;47.820;10.534;2023-09-08T09:54:19;11.23;;;8.65;;
21733;SDS011;11029;47.820;10.534;2023-09-08T09:56:46;8.88;;;7.97;;
21733;SDS011;11029;47.820;10.534;2023-09-08T09:59:17;10.52;;;9.48;;
21733;SDS011;11029;47.820;10.534;2023-09-08T10:01:44;10.55;;;9.40;;
21733;SDS011;11029;47.820;10.534;2023-09-08T10:04:12;10.85;;;9.57;;
21733;SDS011;11029;47.820;10.534;2023-09-08T10:06:41;10.02;;;8.73;;
21733;SDS011;11029;47.820;10.534;2023-09-08T10:09:09;9.90;;;8.90;;
21733;SDS011;11029;47.820;10.534;2023-09-08T10:11:49;10.05;;;9.05;;
21733;SDS011;11029;47.820;10.534;2023-09-08T10:14:18;9.00;;;7.50;;
21733;SDS011;11029;47.820;10.534;2023-09-08T10:16:46;8.93;;;7.72;;
21733;SDS011;11029;47.820;10.534;2023-09-08T10:19:19;9.07;;;8.02;;
21733;SDS011;11029;47.820;10.534;2023-09-08T10:21:46;8.93;;;7.15;;
21733;SDS011;11029;47.820;10.534;2023-09-08T10:24:18;8.55;;;7.53;;
21733;SDS011;11029;47.820;10.534;2023-09-08T10:26:58;8.02;;;7.25;;
21733;SDS011;11029;47.820;10.534;2023-09-08T10:29:47;9.70;;;8.63;;
21733;SDS011;11029;47.820;10.534;2023-09-08T10:32:16;9.68;;;8.75;;
21733;SDS011;11029;47.820;10.534;2023-09-08T10:34:45;9.98;;;9.00;;
21733;SDS011;11029;47.820;10.534;2023-09-08T10:39:47;9.30;;;8.40;;
21733;SDS011;11029;47.820;10.534;2023-09-08T10:47:19;9.30;;;7.45;;
21733;SDS011;11029;47.820;10.534;2023-09-08T10:49:49;7.72;;;6.95;;
21733;SDS011;11029;47.820;10.534;2023-09-08T10:52:23;9.32;;;6.80;;
21733;SDS011;11029;47.820;10.534;2023-09-08T10:54:52;8.50;;;7.60;;
21733;SDS011;11029;47.820;10.534;2023-09-08T10:57:23;9.48;;;8.23;;
21733;SDS011;11029;47.820;10.534;2023-09-08T10:59:52;8.07;;;7.30;;
21733;SDS011;11029;47.820;10.534;2023-09-08T11:02:42;9.38;;;6.97;;
21733;SDS011;11029;47.820;10.534;2023-09-08T11:05:21;9.05;;;7.20;;
21733;SDS011;11029;47.820;10.534;2023-09-08T11:07:47;8.00;;;7.13;;
21733;SDS011;11029;47.820;10.534;2023-09-08T11:10:19;7.60;;;6.88;;
21733;SDS011;11029;47.820;10.534;2023-09-08T11:12:46;8.73;;;7.18;;
21733;SDS011;11029;47.820;10.534;2023-09-08T11:15:15;9.40;;;7.80;;
21733;SDS011;11029;47.820;10.534;2023-09-08T11:17:41;8.10;;;7.32;;
21733;SDS011;11029;47.820;10.534;2023-09-08T11:20:09;8.35;;;7.50;;
21733;SDS011;11029;47.820;10.534;2023-09-08T11:22:37;7.63;;;6.93;;
21733;SDS011;11029;47.820;10.534;2023-09-08T11:25:08;7.50;;;6.88;;
21733;SDS011;11029;47.820;10.534;2023-09-08T11:27:37;9.73;;;7.30;;
21733;SDS011;11029;47.820;10.534;2023-09-08T11:30:08;7.15;;;6.43;;
21733;SDS011;11029;47.820;10.534;2023-09-08T11:32:35;7.85;;;7.10;;
21733;SDS011;11029;47.820;10.534;2023-09-08T11:35:06;10.27;;;7.55;;
21733;SDS011;11029;47.820;10.534;2023-09-08T11:37:38;8.80;;;7.35;;
21733;SDS011;11029;47.820;10.534;2023-09-08T11:40:07;8.15;;;7.35;;
21733;SDS011;11029;47.820;10.534;2023-09-08T11:42:41;8.85;;;7.95;;
21733;SDS011;11029;47.820;10.534;2023-09-08T11:47:39;7.78;;;6.68;;
21733;SDS011;11029;47.820;10.534;2023-09-08T11:50:08;8.13;;;7.32;;
21733;SDS011;11029;47.820;10.534;2023-09-08T11:52:37;7.25;;;6.45;;
21733;SDS011;11029;47.820;10.534;2023-09-08T11:55:05;8.40;;;7.00;;
21733;SDS011;11029;47.820;10.534;2023-09-08T11:57:33;8.10;;;7.15;;
21733;SDS011;11029;47.820;10.534;2023-09-08T12:00:00;7.82;;;7.00;;
21733;SDS011;11029;47.820;10.534;2023-09-08T12:02:34;7.72;;;7.03;;
21733;SDS011;11029;47.820;10.534;2023-09-08T12:05:03;7.93;;;6.63;;
21733;SDS011;11029;47.820;10.534;2023-09-08T12:07:30;7.80;;;7.05;;
21733;SDS011;11029;47.820;10.534;2023-09-08T12:09:58;7.82;;;7.03;;
21733;SDS011;11029;47.820;10.534;2023-09-08T12:12:25;7.50;;;6.70;;
21733;SDS011;11029;47.820;10.534;2023-09-08T12:14:53;7.53;;;6.47;;
21733;SDS011;11029;47.820;10.534;2023-09-08T12:17:20;8.00;;;6.88;;
21733;SDS011;11029;47.820;10.534;2023-09-08T12:19:51;7.07;;;6.38;;
21733;SDS011;11029;47.820;10.534;2023-09-08T12:22:18;7.40;;;6.38;;
21733;SDS011;11029;47.820;10.534;2023-09-08T12:27:23;7.75;;;6.72;;
21733;SDS011;11029;47.820;10.534;2023-09-08T12:29:53;7.20;;;6.53;;
21733;SDS011;11029;47.820;10.534;2023-09-08T12:32:24;7.78;;;6.60;;
21733;SDS011;11029;47.820;10.534;2023-09-08T12:34:52;6.95;;;6.22;;
21733;SDS011;11029;47.820;10.534;2023-09-08T12:37:20;8.25;;;6.80;;
21733;SDS011;11029;47.820;10.534;2023-09-08T12:39:48;7.07;;;6.38;;
21733;SDS011;11029;47.820;10.534;2023-09-08T12:42:15;6.80;;;6.20;;
21733;SDS011;11029;47.820;10.534;2023-09-08T12:44:43;6.38;;;5.80;;
21733;SDS011;11029;47.820;10.534;2023-09-08T12:47:11;8.52;;;6.40;;
21733;SDS011;11029;47.820;10.534;2023-09-08T12:49:40;6.45;;;5.82;;
21733;SDS011;11029;47.820;10.534;2023-09-08T12:52:08;9.30;;;6.90;;
21733;SDS011;11029;47.820;10.534;2023-09-08T12:54:35;7.27;;;6.30;;
21733;SDS011;11029;47.820;10.534;2023-09-08T12:57:02;7.65;;;6.32;;
21733;SDS011;11029;47.820;10.534;2023-09-08T12:59:32;7.40;;;6.35;;
21733;SDS011;11029;47.820;10.534;2023-09-08T13:01:58;7.60;;;6.87;;
21733;SDS011;11029;47.820;10.534;2023-09-08T13:04:25;8.50;;;6.55;;
21733;SDS011;11029;47.820;10.534;2023-09-08T13:06:52;7.35;;;6.13;;
21733;SDS011;11029;47.820;10.534;2023-09-08T13:09:19;6.43;;;5.63;;
21733;SDS011;11029;47.820;10.534;2023-09-08T13:11:46;6.57;;;5.93;;
21733;SDS011;11029;47.820;10.534;2023-09-08T13:14:13;6.68;;;6.05;;
21733;SDS011;11029;47.820;10.534;2023-09-08T13:16:40;7.00;;;6.30;;
21733;SDS011;11029;47.820;10.534;2023-09-08T13:19:07;6.00;;;5.50;;
21733;SDS011;11029;47.820;10.534;2023-09-08T13:21:34;7.38;;;6.03;;
21733;SDS011;11029;47.820;10.534;2023-09-08T13:24:03;6.05;;;5.55;;
21733;SDS011;11029;47.820;10.534;2023-09-08T13:26:33;5.87;;;5.13;;
21733;SDS011;11029;47.820;10.534;2023-09-08T13:28:59;6.07;;;5.00;;
21733;SDS011;11029;47.820;10.534;2023-09-08T13:31:26;5.78;;;4.75;;
21733;SDS011;11029;47.820;10.534;2023-09-08T13:33:53;5.70;;;5.20;;
21733;SDS011;11029;47.820;10.534;2023-09-08T13:36:20;7.10;;;5.22;;
21733;SDS011;11029;47.820;10.534;2023-09-08T13:38:47;5.95;;;5.43;;
